sensor_id;sensor_type;location;lat;lon;timestamp;temperature;humidity
4201;DHT22;2114;50.398;8.814;2022-09-09T00:03:59;19.10;99.90
4201;DHT22;2114;50.398;8.814;2022-09-09T00:09:18;19.10;99.90
4201;DHT22;2114;50.398;8.814;2022-09-09T00:14:32;19.00;99.90
4201;DHT22;2114;50.398;8.814;2022-09-09T00:19:48;18.90;99.90
4201;DHT22;2114;50.398;8.814;2022-09-09T00:25:02;18.70;99.90
4201;DHT22;2114;50.398;8.814;2022-09-09T00:30:20;18.50;99.90
4201;DHT22;2114;50.398;8.814;2022-09-09T00:35:27;18.50;99.90
4201;DHT22;2114;50.398;8.814;2022-09-09T00:51:15;18.30;99.90
4201;DHT22;2114;50.398;8.814;2022-09-09T00:56:22;18.20;99.90
4201;DHT22;2114;50.398;8.814;2022-09-09T01:01:26;18.20;99.90
4201;DHT22;2114;50.398;8.814;2022-09-09T01:06:38;18.20;99.90
4201;DHT22;2114;50.398;8.814;2022-09-09T01:16:55;18.10;99.90
4201;DHT22;2114;50.398;8.814;2022-09-09T01:22:11;18.10;99.90
4201;DHT22;2114;50.398;8.814;2022-09-09T01:27:16;18.10;99.90
4201;DHT22;2114;50.398;8.814;2022-09-09T01:32:52;18.00;99.90
4201;DHT22;2114;50.398;8.814;2022-09-09T01:37:53;17.90;99.90
4201;DHT22;2114;50.398;8.814;2022-09-09T01:42:54;18.00;99.90
4201;DHT22;2114;50.398;8.814;2022-09-09T01:47:56;18.00;99.90
4201;DHT22;2114;50.398;8.814;2022-09-09T01:52:59;17.90;99.90
4201;DHT22;2114;50.398;8.814;2022-09-09T02:03:27;17.80;99.90
4201;DHT22;2114;50.398;8.814;2022-09-09T02:08:42;17.80;99.90
4201;DHT22;2114;50.398;8.814;2022-09-09T02:13:47;17.80;99.90
4201;DHT22;2114;50.398;8.814;2022-09-09T02:18:55;17.70;99.90
4201;DHT22;2114;50.398;8.814;2022-09-09T02:23:59;17.70;99.90
4201;DHT22;2114;50.398;8.814;2022-09-09T02:29:14;17.80;99.90
4201;DHT22;2114;50.398;8.814;2022-09-09T02:34:18;17.70;99.90
4201;DHT22;2114;50.398;8.814;2022-09-09T02:39:20;17.70;99.90
4201;DHT22;2114;50.398;8.814;2022-09-09T02:44:21;17.70;99.90
4201;DHT22;2114;50.398;8.814;2022-09-09T02:54:59;17.60;99.90
4201;DHT22;2114;50.398;8.814;2022-09-09T03:00:03;17.50;99.90
4201;DHT22;2114;50.398;8.814;2022-09-09T03:05:05;17.50;99.90
4201;DHT22;2114;50.398;8.814;2022-09-09T03:10:07;17.50;99.90
4201;DHT22;2114;50.398;8.814;2022-09-09T03:15:08;17.10;99.90
4201;DHT22;2114;50.398;8.814;2022-09-09T03:20:10;17.10;99.90
4201;DHT22;2114;50.398;8.814;2022-09-09T03:25:10;17.10;99.90
4201;DHT22;2114;50.398;8.814;2022-09-09T03:30:11;17.10;99.90
4201;DHT22;2114;50.398;8.814;2022-09-09T03:35:12;17.10;99.90
4201;DHT22;2114;50.398;8.814;2022-09-09T03:40:13;17.10;99.90
4201;DHT22;2114;50.398;8.814;2022-09-09T03:45:14;17.10;99.90
4201;DHT22;2114;50.398;8.814;2022-09-09T03:50:15;17.00;99.90
4201;DHT22;2114;50.398;8.814;2022-09-09T03:55:15;17.00;99.90
4201;DHT22;2114;50.398;8.814;2022-09-09T04:00:16;16.90;99.90
4201;DHT22;2114;50.398;8.814;2022-09-09T04:05:16;16.90;99.90
4201;DHT22;2114;50.398;8.814;2022-09-09T04:10:17;16.90;99.90
4201;DHT22;2114;50.398;8.814;2022-09-09T04:15:18;16.80;99.90
4201;DHT22;2114;50.398;8.814;2022-09-09T04:20:19;16.80;99.90
4201;DHT22;2114;50.398;8.814;2022-09-09T04:25:19;16.70;99.90
4201;DHT22;2114;50.398;8.814;2022-09-09T04:30:20;16.80;99.90
4201;DHT22;2114;50.398;8.814;2022-09-09T04:35:21;16.80;99.90
4201;DHT22;2114;50.398;8.814;2022-09-09T04:40:21;16.80;99.90
4201;DHT22;2114;50.398;8.814;2022-09-09T04:45:22;16.90;99.90
4201;DHT22;2114;50.398;8.814;2022-09-09T04:50:23;16.90;99.90
4201;DHT22;2114;50.398;8.814;2022-09-09T04:55:23;16.90;99.90
4201;DHT22;2114;50.398;8.814;2022-09-09T05:00:24;16.90;99.90
4201;DHT22;2114;50.398;8.814;2022-09-09T05:05:25;16.90;99.90
4201;DHT22;2114;50.398;8.814;2022-09-09T05:10:26;16.90;99.90
4201;DHT22;2114;50.398;8.814;2022-09-09T05:15:27;16.90;99.90
4201;DHT22;2114;50.398;8.814;2022-09-09T05:20:28;16.90;99.90
4201;DHT22;2114;50.398;8.814;2022-09-09T05:25:28;16.90;99.90
4201;DHT22;2114;50.398;8.814;2022-09-09T05:30:29;16.90;99.90
4201;DHT22;2114;50.398;8.814;2022-09-09T05:35:29;16.90;99.90
4201;DHT22;2114;50.398;8.814;2022-09-09T05:40:30;16.90;99.90
4201;DHT22;2114;50.398;8.814;2022-09-09T05:45:30;16.90;99.90
4201;DHT22;2114;50.398;8.814;2022-09-09T05:50:31;16.90;99.90
4201;DHT22;2114;50.398;8.814;2022-09-09T05:55:32;16.90;99.90
4201;DHT22;2114;50.398;8.814;2022-09-09T06:00:32;16.90;99.90
4201;DHT22;2114;50.398;8.814;2022-09-09T06:05:33;16.90;99.90
4201;DHT22;2114;50.398;8.814;2022-09-09T06:10:35;16.80;99.90
4201;DHT22;2114;50.398;8.814;2022-09-09T06:15:36;16.80;99.90
4201;DHT22;2114;50.398;8.814;2022-09-09T06:20:37;16.80;99.90
4201;DHT22;2114;50.398;8.814;2022-09-09T06:25:38;16.80;99.90
4201;DHT22;2114;50.398;8.814;2022-09-09T06:30:41;16.80;99.90
4201;DHT22;2114;50.398;8.814;2022-09-09T06:35:42;16.80;99.90
4201;DHT22;2114;50.398;8.814;2022-09-09T06:40:42;16.90;99.90
4201;DHT22;2114;50.398;8.814;2022-09-09T06:45:43;16.90;99.90
4201;DHT22;2114;50.398;8.814;2022-09-09T06:50:43;17.00;99.90
4201;DHT22;2114;50.398;8.814;2022-09-09T06:55:45;17.10;99.90
4201;DHT22;2114;50.398;8.814;2022-09-09T07:00:45;17.10;99.90
4201;DHT22;2114;50.398;8.814;2022-09-09T07:05:54;17.20;99.90
4201;DHT22;2114;50.398;8.814;2022-09-09T07:11:02;17.30;99.90
4201;DHT22;2114;50.398;8.814;2022-09-09T07:16:05;17.40;99.90
4201;DHT22;2114;50.398;8.814;2022-09-09T07:21:06;17.50;99.90
4201;DHT22;2114;50.398;8.814;2022-09-09T07:26:11;17.60;99.90
4201;DHT22;2114;50.398;8.814;2022-09-09T07:31:21;17.80;99.90
4201;DHT22;2114;50.398;8.814;2022-09-09T07:36:24;17.90;99.90
4201;DHT22;2114;50.398;8.814;2022-09-09T07:41:29;18.10;99.90
4201;DHT22;2114;50.398;8.814;2022-09-09T07:46:30;18.20;99.90
4201;DHT22;2114;50.398;8.814;2022-09-09T07:51:33;18.40;99.90
4201;DHT22;2114;50.398;8.814;2022-09-09T07:56:35;18.50;99.90
4201;DHT22;2114;50.398;8.814;2022-09-09T08:01:39;18.60;99.90
4201;DHT22;2114;50.398;8.814;2022-09-09T08:06:43;18.70;99.90
4201;DHT22;2114;50.398;8.814;2022-09-09T08:11:44;18.90;99.90
4201;DHT22;2114;50.398;8.814;2022-09-09T08:16:47;19.10;99.90
4201;DHT22;2114;50.398;8.814;2022-09-09T08:21:48;19.20;99.90
4201;DHT22;2114;50.398;8.814;2022-09-09T08:26:49;19.30;99.90
4201;DHT22;2114;50.398;8.814;2022-09-09T08:31:51;19.50;99.90
4201;DHT22;2114;50.398;8.814;2022-09-09T08:36:54;19.60;99.90
4201;DHT22;2114;50.398;8.814;2022-09-09T08:57:28;20.20;99.90
4201;DHT22;2114;50.398;8.814;2022-09-09T09:02:49;20.40;99.90
4201;DHT22;2114;50.398;8.814;2022-09-09T09:12:53;20.60;99.90
4201;DHT22;2114;50.398;8.814;2022-09-09T09:17:54;20.80;99.90
4201;DHT22;2114;50.398;8.814;2022-09-09T09:22:57;21.10;99.90
4201;DHT22;2114;50.398;8.814;2022-09-09T09:38:24;21.30;99.90
4201;DHT22;2114;50.398;8.814;2022-09-09T09:43:35;20.80;99.90
4201;DHT22;2114;50.398;8.814;2022-09-09T09:48:36;20.30;99.90
4201;DHT22;2114;50.398;8.814;2022-09-09T09:53:38;20.00;99.90
4201;DHT22;2114;50.398;8.814;2022-09-09T10:03:51;19.30;99.90
4201;DHT22;2114;50.398;8.814;2022-09-09T10:08:52;19.10;99.90
4201;DHT22;2114;50.398;8.814;2022-09-09T10:14:12;19.10;99.90
4201;DHT22;2114;50.398;8.814;2022-09-09T10:19:32;19.30;99.90
4201;DHT22;2114;50.398;8.814;2022-09-09T10:24:41;20.00;99.90
4201;DHT22;2114;50.398;8.814;2022-09-09T10:30:12;21.20;99.90
4201;DHT22;2114;50.398;8.814;2022-09-09T10:36:01;22.10;99.90
4201;DHT22;2114;50.398;8.814;2022-09-09T10:57:03;22.80;99.90
4201;DHT22;2114;50.398;8.814;2022-09-09T11:02:17;23.70;99.90
4201;DHT22;2114;50.398;8.814;2022-09-09T11:07:41;24.40;99.90
4201;DHT22;2114;50.398;8.814;2022-09-09T11:12:47;25.30;99.90
4201;DHT22;2114;50.398;8.814;2022-09-09T11:17:52;25.90;99.90
4201;DHT22;2114;50.398;8.814;2022-09-09T11:22:59;26.40;99.90
4201;DHT22;2114;50.398;8.814;2022-09-09T11:38:47;26.10;99.90
4201;DHT22;2114;50.398;8.814;2022-09-09T11:43:52;26.70;99.90
4201;DHT22;2114;50.398;8.814;2022-09-09T11:49:01;26.60;99.30
4201;DHT22;2114;50.398;8.814;2022-09-09T11:54:32;26.20;99.20
4201;DHT22;2114;50.398;8.814;2022-09-09T11:59:33;26.00;99.70
4201;DHT22;2114;50.398;8.814;2022-09-09T12:04:37;25.80;99.80
4201;DHT22;2114;50.398;8.814;2022-09-09T12:10:38;25.80;99.60
4201;DHT22;2114;50.398;8.814;2022-09-09T12:30:59;24.90;99.90
4201;DHT22;2114;50.398;8.814;2022-09-09T12:36:04;24.60;99.90
4201;DHT22;2114;50.398;8.814;2022-09-09T12:41:27;24.50;99.90
4201;DHT22;2114;50.398;8.814;2022-09-09T12:46:33;24.20;99.90
4201;DHT22;2114;50.398;8.814;2022-09-09T12:51:36;24.00;99.90
4201;DHT22;2114;50.398;8.814;2022-09-09T12:56:38;23.90;99.90
4201;DHT22;2114;50.398;8.814;2022-09-09T13:01:39;23.90;99.90
4201;DHT22;2114;50.398;8.814;2022-09-09T13:06:40;23.90;99.90
4201;DHT22;2114;50.398;8.814;2022-09-09T13:11:48;23.90;99.90
4201;DHT22;2114;50.398;8.814;2022-09-09T13:16:57;23.90;99.90
4201;DHT22;2114;50.398;8.814;2022-09-09T13:21:58;24.20;98.90
4201;DHT22;2114;50.398;8.814;2022-09-09T13:32:25;24.40;98.10
4201;DHT22;2114;50.398;8.814;2022-09-09T13:37:37;24.50;98.50
4201;DHT22;2114;50.398;8.814;2022-09-09T13:42:40;24.90;96.10
4201;DHT22;2114;50.398;8.814;2022-09-09T13:47:42;25.30;95.50
4201;DHT22;2114;50.398;8.814;2022-09-09T13:52:43;25.50;94.00
4201;DHT22;2114;50.398;8.814;2022-09-09T13:57:55;25.40;94.30
4201;DHT22;2114;50.398;8.814;2022-09-09T14:02:55;24.90;95.10
4201;DHT22;2114;50.398;8.814;2022-09-09T14:07:57;24.90;95.70
4201;DHT22;2114;50.398;8.814;2022-09-09T14:12:58;24.70;96.30
4201;DHT22;2114;50.398;8.814;2022-09-09T14:17:58;25.10;96.10
4201;DHT22;2114;50.398;8.814;2022-09-09T14:22:59;25.60;95.40
4201;DHT22;2114;50.398;8.814;2022-09-09T14:28:00;26.20;94.20
4201;DHT22;2114;50.398;8.814;2022-09-09T14:33:00;26.60;94.00
4201;DHT22;2114;50.398;8.814;2022-09-09T14:38:01;26.70;93.50
4201;DHT22;2114;50.398;8.814;2022-09-09T14:43:03;26.00;92.80
4201;DHT22;2114;50.398;8.814;2022-09-09T14:48:04;25.90;92.90
4201;DHT22;2114;50.398;8.814;2022-09-09T14:53:04;25.30;93.50
4201;DHT22;2114;50.398;8.814;2022-09-09T14:58:08;24.80;94.40
4201;DHT22;2114;50.398;8.814;2022-09-09T15:03:09;24.50;94.70
4201;DHT22;2114;50.398;8.814;2022-09-09T15:08:11;24.30;95.20
4201;DHT22;2114;50.398;8.814;2022-09-09T15:13:11;24.10;95.60
4201;DHT22;2114;50.398;8.814;2022-09-09T15:18:13;23.80;95.70
4201;DHT22;2114;50.398;8.814;2022-09-09T15:23:14;23.70;95.90
4201;DHT22;2114;50.398;8.814;2022-09-09T15:28:17;23.50;96.30
4201;DHT22;2114;50.398;8.814;2022-09-09T15:33:19;23.30;96.50
4201;DHT22;2114;50.398;8.814;2022-09-09T15:38:20;23.20;97.10
4201;DHT22;2114;50.398;8.814;2022-09-09T15:43:21;23.40;97.20
4201;DHT22;2114;50.398;8.814;2022-09-09T15:48:30;23.90;97.30
4201;DHT22;2114;50.398;8.814;2022-09-09T15:53:32;24.40;96.50
4201;DHT22;2114;50.398;8.814;2022-09-09T15:58:34;24.90;95.30
4201;DHT22;2114;50.398;8.814;2022-09-09T16:03:37;24.90;94.70
4201;DHT22;2114;50.398;8.814;2022-09-09T16:08:40;24.50;94.60
4201;DHT22;2114;50.398;8.814;2022-09-09T16:13:42;23.90;95.20
4201;DHT22;2114;50.398;8.814;2022-09-09T16:18:48;23.40;95.80
4201;DHT22;2114;50.398;8.814;2022-09-09T16:23:50;22.90;96.20
4201;DHT22;2114;50.398;8.814;2022-09-09T16:28:54;22.60;96.60
4201;DHT22;2114;50.398;8.814;2022-09-09T16:33:58;22.40;97.10
4201;DHT22;2114;50.398;8.814;2022-09-09T16:39:04;22.10;97.80
4201;DHT22;2114;50.398;8.814;2022-09-09T16:44:07;21.90;98.30
4201;DHT22;2114;50.398;8.814;2022-09-09T16:49:10;21.70;99.10
4201;DHT22;2114;50.398;8.814;2022-09-09T16:54:11;21.60;99.70
4201;DHT22;2114;50.398;8.814;2022-09-09T16:59:16;21.40;99.90
4201;DHT22;2114;50.398;8.814;2022-09-09T17:04:22;21.40;99.90
4201;DHT22;2114;50.398;8.814;2022-09-09T17:09:25;21.30;99.90
4201;DHT22;2114;50.398;8.814;2022-09-09T17:14:29;21.30;99.90
4201;DHT22;2114;50.398;8.814;2022-09-09T17:19:31;21.20;99.90
4201;DHT22;2114;50.398;8.814;2022-09-09T17:24:32;21.20;99.90
4201;DHT22;2114;50.398;8.814;2022-09-09T17:29:34;21.20;99.90
4201;DHT22;2114;50.398;8.814;2022-09-09T17:34:36;21.10;99.90
4201;DHT22;2114;50.398;8.814;2022-09-09T17:39:36;21.10;99.90
4201;DHT22;2114;50.398;8.814;2022-09-09T17:44:37;21.00;99.90
4201;DHT22;2114;50.398;8.814;2022-09-09T17:49:39;20.90;99.90
4201;DHT22;2114;50.398;8.814;2022-09-09T17:54:39;20.90;99.90
4201;DHT22;2114;50.398;8.814;2022-09-09T17:59:41;20.80;99.90
4201;DHT22;2114;50.398;8.814;2022-09-09T18:04:42;20.70;99.90
4201;DHT22;2114;50.398;8.814;2022-09-09T18:09:42;20.70;99.90
4201;DHT22;2114;50.398;8.814;2022-09-09T18:14:43;20.60;99.90
4201;DHT22;2114;50.398;8.814;2022-09-09T18:19:43;20.60;99.90
4201;DHT22;2114;50.398;8.814;2022-09-09T18:24:44;20.50;99.90
4201;DHT22;2114;50.398;8.814;2022-09-09T18:29:47;20.40;99.90
4201;DHT22;2114;50.398;8.814;2022-09-09T18:34:48;20.40;99.90
4201;DHT22;2114;50.398;8.814;2022-09-09T18:39:50;20.30;99.90
4201;DHT22;2114;50.398;8.814;2022-09-09T18:44:50;20.30;99.90
4201;DHT22;2114;50.398;8.814;2022-09-09T18:49:51;20.20;99.90
4201;DHT22;2114;50.398;8.814;2022-09-09T18:54:51;20.10;99.90
4201;DHT22;2114;50.398;8.814;2022-09-09T18:59:53;20.10;99.90
4201;DHT22;2114;50.398;8.814;2022-09-09T19:04:54;20.00;99.90
4201;DHT22;2114;50.398;8.814;2022-09-09T19:09:55;19.90;99.90
4201;DHT22;2114;50.398;8.814;2022-09-09T19:14:56;19.80;99.90
4201;DHT22;2114;50.398;8.814;2022-09-09T19:19:56;19.70;99.90
4201;DHT22;2114;50.398;8.814;2022-09-09T19:24:57;19.70;99.90
4201;DHT22;2114;50.398;8.814;2022-09-09T19:29:59;19.70;99.90
4201;DHT22;2114;50.398;8.814;2022-09-09T19:35:00;19.60;99.90
4201;DHT22;2114;50.398;8.814;2022-09-09T19:40:02;19.50;99.90
4201;DHT22;2114;50.398;8.814;2022-09-09T19:45:04;19.40;99.90
4201;DHT22;2114;50.398;8.814;2022-09-09T19:50:06;19.30;99.90
4201;DHT22;2114;50.398;8.814;2022-09-09T19:55:08;19.30;99.90
4201;DHT22;2114;50.398;8.814;2022-09-09T20:00:09;19.10;99.90
4201;DHT22;2114;50.398;8.814;2022-09-09T20:05:09;19.00;99.90
4201;DHT22;2114;50.398;8.814;2022-09-09T20:10:10;19.00;99.90
4201;DHT22;2114;50.398;8.814;2022-09-09T20:15:11;18.90;99.90
4201;DHT22;2114;50.398;8.814;2022-09-09T20:20:12;18.90;99.90
4201;DHT22;2114;50.398;8.814;2022-09-09T20:25:12;18.80;99.90
4201;DHT22;2114;50.398;8.814;2022-09-09T20:30:14;18.50;99.90
4201;DHT22;2114;50.398;8.814;2022-09-09T20:35:15;18.40;99.90
4201;DHT22;2114;50.398;8.814;2022-09-09T20:40:16;18.40;99.90
4201;DHT22;2114;50.398;8.814;2022-09-09T20:45:16;18.30;99.90
4201;DHT22;2114;50.398;8.814;2022-09-09T20:50:17;18.30;99.90
4201;DHT22;2114;50.398;8.814;2022-09-09T20:55:18;18.20;99.90
4201;DHT22;2114;50.398;8.814;2022-09-09T21:00:18;18.20;99.90
4201;DHT22;2114;50.398;8.814;2022-09-09T21:05:19;18.20;99.90
4201;DHT22;2114;50.398;8.814;2022-09-09T21:10:20;18.10;99.90
4201;DHT22;2114;50.398;8.814;2022-09-09T21:15:20;18.10;99.90
4201;DHT22;2114;50.398;8.814;2022-09-09T21:20:21;18.10;99.90
4201;DHT22;2114;50.398;8.814;2022-09-09T21:25:22;18.00;99.90
4201;DHT22;2114;50.398;8.814;2022-09-09T21:30:22;17.90;99.90
4201;DHT22;2114;50.398;8.814;2022-09-09T21:35:25;17.90;99.90
4201;DHT22;2114;50.398;8.814;2022-09-09T21:40:26;17.80;99.90
4201;DHT22;2114;50.398;8.814;2022-09-09T21:45:26;17.70;99.90
4201;DHT22;2114;50.398;8.814;2022-09-09T21:50:27;17.70;99.90
4201;DHT22;2114;50.398;8.814;2022-09-09T21:55:38;17.50;99.90
4201;DHT22;2114;50.398;8.814;2022-09-09T22:00:44;17.40;99.90
4201;DHT22;2114;50.398;8.814;2022-09-09T22:05:45;17.30;99.90
4201;DHT22;2114;50.398;8.814;2022-09-09T22:10:46;17.20;99.90
4201;DHT22;2114;50.398;8.814;2022-09-09T22:15:47;17.20;99.90
4201;DHT22;2114;50.398;8.814;2022-09-09T22:20:47;17.10;99.90
4201;DHT22;2114;50.398;8.814;2022-09-09T22:25:48;17.10;99.90
4201;DHT22;2114;50.398;8.814;2022-09-09T22:30:49;17.10;99.90
4201;DHT22;2114;50.398;8.814;2022-09-09T22:35:50;17.10;99.90
4201;DHT22;2114;50.398;8.814;2022-09-09T22:40:51;17.10;99.90
4201;DHT22;2114;50.398;8.814;2022-09-09T22:45:52;17.10;99.90
4201;DHT22;2114;50.398;8.814;2022-09-09T22:50:52;17.10;99.90
4201;DHT22;2114;50.398;8.814;2022-09-09T22:55:57;17.10;99.90
4201;DHT22;2114;50.398;8.814;2022-09-09T23:00:59;17.10;99.90
4201;DHT22;2114;50.398;8.814;2022-09-09T23:06:01;17.10;99.90
4201;DHT22;2114;50.398;8.814;2022-09-09T23:11:08;17.00;99.90
4201;DHT22;2114;50.398;8.814;2022-09-09T23:16:10;17.00;99.90
4201;DHT22;2114;50.398;8.814;2022-09-09T23:21:12;17.00;99.90
4201;DHT22;2114;50.398;8.814;2022-09-09T23:26:14;17.00;99.90
4201;DHT22;2114;50.398;8.814;2022-09-09T23:31:21;17.00;99.90
4201;DHT22;2114;50.398;8.814;2022-09-09T23:36:23;17.00;99.90
4201;DHT22;2114;50.398;8.814;2022-09-09T23:41:24;17.00;99.90
4201;DHT22;2114;50.398;8.814;2022-09-09T23:46:26;17.00;99.90
4201;DHT22;2114;50.398;8.814;2022-09-09T23:51:29;16.90;99.90
4201;DHT22;2114;50.398;8.814;2022-09-09T23:56:33;16.90;99.90
